Time;durP1;ratioP1;P1;durP2;ratioP2;P2;SDS_P1;SDS_P2;PMS_P1;PMS_P2;Temp;Humidity;BMP_temperature;BMP_pressure;BME280_temperature;BME280_humidity;BME280_pressure;Samples;Min_cycle;Max_cycle;Signal;HPM_P1;HPM_P2
2021/07/22 00:00:08;;;;;;;9.43;7.55;;;19.60;81.20;;;;;;5072624;28;20048;-91
2021/07/22 00:02:34;;;;;;;10.02;7.45;;;19.60;82.00;;;;;;5072739;28;20089;-89
2021/07/22 00:05:00;;;;;;;9.57;7.72;;;19.60;81.40;;;;;;5073067;28;20049;-89
2021/07/22 00:07:25;;;;;;;9.73;7.85;;;19.60;81.70;;;;;;5072727;28;20547;-89
2021/07/22 00:09:51;;;;;;;9.88;7.78;;;19.60;81.50;;;;;;5072979;28;20082;-89
2021/07/22 00:12:18;;;;;;;10.85;7.88;;;19.50;81.70;;;;;;5073499;28;20044;-89
2021/07/22 00:14:43;;;;;;;10.93;7.90;;;19.50;81.60;;;;;;5073366;28;20483;-89
2021/07/22 00:17:11;;;;;;;12.32;7.80;;;19.50;81.60;;;;;;5071930;28;20058;-89
2021/07/22 00:19:37;;;;;;;10.75;7.50;;;19.50;81.50;;;;;;5073469;28;20110;-90
2021/07/22 00:22:03;;;;;;;10.20;8.07;;;19.40;81.20;;;;;;5072841;28;20500;-90
2021/07/22 00:24:29;;;;;;;10.52;7.70;;;19.40;81.50;;;;;;5072475;28;20045;-90
2021/07/22 00:26:55;;;;;;;10.90;8.13;;;19.40;81.60;;;;;;5073462;28;20136;-89
2021/07/22 00:29:21;;;;;;;10.20;7.90;;;19.40;81.70;;;;;;5072395;28;20397;-90
2021/07/22 00:31:48;;;;;;;10.43;7.50;;;19.40;81.70;;;;;;5072898;28;20054;-89
2021/07/22 00:34:14;;;;;;;10.40;8.02;;;19.40;80.60;;;;;;5072899;28;20131;-90
2021/07/22 00:36:40;;;;;;;10.05;7.75;;;19.40;81.20;;;;;;5072269;28;20052;-89
2021/07/22 00:39:06;;;;;;;9.95;7.63;;;19.30;81.60;;;;;;5072736;28;20102;-90
2021/07/22 00:41:38;;;;;;;8.80;7.03;;;19.40;81.70;;;;;;5073193;28;20098;-89
2021/07/22 00:44:04;;;;;;;10.90;7.60;;;19.30;81.60;;;;;;5072522;28;20094;-89
2021/07/22 00:46:30;;;;;;;10.07;7.47;;;19.30;81.90;;;;;;5073423;28;20044;-88
2021/07/22 00:48:55;;;;;;;9.25;7.97;;;19.30;81.80;;;;;;5072806;28;20051;-89
2021/07/22 00:51:21;;;;;;;10.15;8.15;;;19.30;81.60;;;;;;5072044;28;20052;-89
2021/07/22 00:53:46;;;;;;;8.75;7.72;;;19.30;81.60;;;;;;5072826;28;20128;-89
2021/07/22 00:56:12;;;;;;;11.70;8.13;;;19.20;81.10;;;;;;5072898;28;20123;-90
2021/07/22 00:58:38;;;;;;;9.85;8.18;;;19.20;81.40;;;;;;5072275;28;20147;-88
2021/07/22 01:01:03;;;;;;;9.57;7.65;;;19.20;81.70;;;;;;5072996;28;20059;-89
2021/07/22 01:03:29;;;;;;;11.52;7.72;;;19.20;81.60;;;;;;5072243;28;20036;-88
2021/07/22 01:05:55;;;;;;;10.30;8.20;;;19.20;81.40;;;;;;5072145;28;20102;-88
2021/07/22 01:08:20;;;;;;;11.20;8.15;;;19.20;81.60;;;;;;5072356;28;20068;-88
2021/07/22 01:10:46;;;;;;;10.88;7.63;;;19.20;82.30;;;;;;5074868;28;20051;-88
2021/07/22 01:13:12;;;;;;;10.48;7.90;;;19.20;81.60;;;;;;5075657;28;20473;-88
2021/07/22 01:15:37;;;;;;;11.73;8.20;;;19.10;81.40;;;;;;5076063;28;20052;-88
2021/07/22 01:18:03;;;;;;;12.25;8.60;;;19.10;81.50;;;;;;5076054;28;20408;-88
2021/07/22 01:20:29;;;;;;;9.82;8.05;;;19.10;82.00;;;;;;5069736;28;20053;-88
2021/07/22 01:22:56;;;;;;;10.88;8.57;;;19.10;81.90;;;;;;5055842;28;20049;-88
2021/07/22 01:25:23;;;;;;;10.23;7.68;;;19.10;82.10;;;;;;5055834;28;20558;-88
2021/07/22 01:27:50;;;;;;;10.00;8.25;;;19.10;81.70;;;;;;5055364;28;20101;-87
2021/07/22 01:30:17;;;;;;;10.95;8.05;;;19.10;81.80;;;;;;5055703;28;20405;-88
2021/07/22 01:32:43;;;;;;;9.80;7.65;;;19.00;82.10;;;;;;5055300;28;20052;-88
2021/07/22 01:35:11;;;;;;;11.10;8.77;;;19.10;82.20;;;;;;5055510;28;20397;-88
2021/07/22 01:37:38;;;;;;;10.32;8.23;;;19.00;82.20;;;;;;5056202;28;20052;-88
2021/07/22 01:40:05;;;;;;;12.02;8.57;;;19.00;81.90;;;;;;5054974;28;20095;-88
2021/07/22 01:42:31;;;;;;;13.10;8.18;;;19.00;81.80;;;;;;5055600;28;20049;-88
2021/07/22 01:44:57;;;;;;;10.65;8.32;;;19.00;82.00;;;;;;5055860;28;20448;-88
2021/07/22 01:47:23;;;;;;;11.00;7.80;;;19.00;82.20;;;;;;5055090;28;20049;-88
2021/07/22 01:49:48;;;;;;;9.98;8.50;;;19.00;82.20;;;;;;5055954;28;20499;-88
2021/07/22 01:52:14;;;;;;;9.25;7.95;;;19.00;82.20;;;;;;5055688;28;20464;-89
2021/07/22 01:54:40;;;;;;;11.23;8.20;;;18.90;82.10;;;;;;5055082;28;20079;-88
2021/07/22 01:57:06;;;;;;;10.48;8.38;;;18.90;82.30;;;;;;5055393;28;20412;-87
2021/07/22 01:59:35;;;;;;;10.23;8.48;;;18.90;81.60;;;;;;5055297;28;20053;-88
2021/07/22 02:02:05;;;;;;;13.63;8.23;;;18.90;82.20;;;;;;5054036;28;20101;-87
2021/07/22 02:04:31;;;;;;;12.20;8.88;;;18.90;82.30;;;;;;5055436;28;20124;-89
2021/07/22 02:06:57;;;;;;;11.30;8.65;;;18.90;82.40;;;;;;5055654;28;20053;-89
2021/07/22 02:09:23;;;;;;;12.68;8.60;;;18.90;82.50;;;;;;5054956;28;20045;-89
2021/07/22 02:11:49;;;;;;;12.68;8.82;;;18.80;82.30;;;;;;5055647;28;20080;-90
2021/07/22 02:14:15;;;;;;;9.95;7.80;;;18.80;82.60;;;;;;5054883;28;20107;-89
2021/07/22 02:16:40;;;;;;;11.93;8.68;;;18.80;81.40;;;;;;5054831;28;20566;-90
2021/07/22 02:19:06;;;;;;;12.35;8.70;;;18.80;82.10;;;;;;5055019;28;20480;-90
2021/07/22 02:21:32;;;;;;;11.98;9.15;;;18.80;82.20;;;;;;5068308;28;20515;-91
2021/07/22 02:23:58;;;;;;;13.65;8.73;;;18.70;82.10;;;;;;5074506;28;20063;-90
2021/07/22 02:26:23;;;;;;;11.02;8.10;;;18.70;82.40;;;;;;5075299;28;20041;-90
2021/07/22 02:28:51;;;;;;;11.18;8.63;;;18.70;82.30;;;;;;5074816;28;20052;-89
2021/07/22 02:31:16;;;;;;;13.10;8.93;;;18.70;82.80;;;;;;5054916;28;20045;-90
2021/07/22 02:33:42;;;;;;;11.75;9.13;;;18.70;83.10;;;;;;5055299;28;20095;-90
2021/07/22 02:36:08;;;;;;;11.35;8.82;;;18.70;82.80;;;;;;5054229;28;20424;-89
2021/07/22 02:38:34;;;;;;;12.00;8.98;;;18.70;82.90;;;;;;5054874;28;20094;-90
2021/07/22 02:41:00;;;;;;;11.20;8.80;;;18.60;83.80;;;;;;5054761;28;20053;-90
2021/07/22 02:43:28;;;;;;;10.50;8.95;;;18.60;83.20;;;;;;5054035;28;20493;-89
2021/07/22 02:45:54;;;;;;;15.07;9.27;;;18.60;83.10;;;;;;5054825;28;20045;-89
2021/07/22 02:48:20;;;;;;;11.05;8.48;;;18.60;83.00;;;;;;5054367;28;20492;-90
2021/07/22 02:50:46;;;;;;;11.38;8.98;;;18.60;82.90;;;;;;5054160;28;20121;-90
2021/07/22 02:53:12;;;;;;;10.95;8.82;;;18.60;82.90;;;;;;5054577;28;20049;-91
2021/07/22 02:55:37;;;;;;;12.02;8.88;;;18.60;83.20;;;;;;5065210;28;20600;-90
2021/07/22 02:58:06;;;;;;;12.52;8.77;;;18.60;83.00;;;;;;5073648;28;20071;-91
2021/07/22 03:00:32;;;;;;;11.65;8.73;;;18.60;83.20;;;;;;5074372;28;20059;-90
2021/07/22 03:03:02;;;;;;;12.73;9.32;;;18.60;83.20;;;;;;5074582;28;20089;-89
2021/07/22 03:05:29;;;;;;;11.82;9.23;;;18.60;83.60;;;;;;5073880;28;20055;-89
2021/07/22 03:07:56;;;;;;;11.15;9.27;;;18.60;83.50;;;;;;5074617;28;20055;-90
2021/07/22 03:10:25;;;;;;;12.63;9.23;;;18.60;83.50;;;;;;5073879;28;20051;-89
2021/07/22 03:12:52;;;;;;;12.23;9.23;;;18.60;83.50;;;;;;5073862;28;20048;-90
2021/07/22 03:15:18;;;;;;;11.68;9.55;;;18.60;82.80;;;;;;5074116;28;20069;-90
2021/07/22 03:17:44;;;;;;;13.25;9.23;;;18.50;82.90;;;;;;5074099;28;20044;-90
2021/07/22 03:20:10;;;;;;;12.02;9.85;;;18.60;83.40;;;;;;5073141;28;20044;-89
2021/07/22 03:22:36;;;;;;;12.05;9.68;;;18.50;83.20;;;;;;5074265;28;20051;-89
2021/07/22 03:25:02;;;;;;;13.90;10.13;;;18.50;83.40;;;;;;5073226;28;20481;-90
2021/07/22 03:27:28;;;;;;;14.05;9.60;;;18.50;83.50;;;;;;5073396;28;20137;-90
2021/07/22 03:29:53;;;;;;;12.68;9.55;;;18.50;83.50;;;;;;5074217;28;20135;-90
2021/07/22 03:32:19;;;;;;;12.15;9.35;;;18.50;84.20;;;;;;5073012;28;20072;-90
2021/07/22 03:34:45;;;;;;;11.35;9.07;;;18.50;83.50;;;;;;5073759;28;20074;-90
2021/07/22 03:37:10;;;;;;;13.05;9.80;;;18.50;82.60;;;;;;5073227;28;20049;-90
2021/07/22 03:39:37;;;;;;;13.30;9.60;;;18.50;82.80;;;;;;5073073;28;20447;-90
2021/07/22 03:42:05;;;;;;;11.32;8.93;;;18.50;83.00;;;;;;5072915;28;20103;-90
2021/07/22 03:44:31;;;;;;;12.15;9.80;;;18.50;82.50;;;;;;5073610;28;20451;-90
2021/07/22 03:46:57;;;;;;;12.90;9.30;;;18.50;82.80;;;;;;5073174;28;20056;-90
2021/07/22 03:49:22;;;;;;;11.45;8.90;;;18.50;82.50;;;;;;5073536;28;20530;-90
2021/07/22 03:51:48;;;;;;;12.45;9.25;;;18.50;82.70;;;;;;5073547;28;20408;-90
2021/07/22 03:54:14;;;;;;;12.50;9.15;;;18.40;82.60;;;;;;5072829;28;20512;-90
2021/07/22 03:56:40;;;;;;;11.80;9.52;;;18.40;82.00;;;;;;5073265;28;20230;-90
2021/07/22 03:59:06;;;;;;;12.60;9.27;;;18.40;82.60;;;;;;5073707;28;20178;-90
2021/07/22 04:01:32;;;;;;;13.27;9.40;;;18.40;82.90;;;;;;5072921;28;20506;-90
2021/07/22 04:03:57;;;;;;;12.70;9.50;;;18.40;83.10;;;;;;5073128;28;20078;-89
2021/07/22 04:06:23;;;;;;;10.82;9.18;;;18.40;83.30;;;;;;5073461;28;20044;-90
2021/07/22 04:08:49;;;;;;;12.65;9.68;;;18.40;83.50;;;;;;5072738;28;20052;-90
2021/07/22 04:11:14;;;;;;;18.98;10.43;;;18.40;84.30;;;;;;5073251;28;20045;-90
2021/07/22 04:13:40;;;;;;;11.65;9.07;;;18.40;83.60;;;;;;5073941;28;20052;-90
2021/07/22 04:16:06;;;;;;;11.23;8.95;;;18.40;83.60;;;;;;5072449;28;20040;-89
2021/07/22 04:18:32;;;;;;;11.23;9.27;;;18.40;83.60;;;;;;5073257;28;20105;-90
2021/07/22 04:21:00;;;;;;;11.80;9.48;;;18.40;83.10;;;;;;5063000;28;20378;-90
2021/07/22 04:23:25;;;;;;;11.68;8.88;;;18.40;83.50;;;;;;5052474;28;20045;-90
2021/07/22 04:25:51;;;;;;;11.48;8.82;;;18.40;83.80;;;;;;5052938;28;20091;-90
2021/07/22 04:28:17;;;;;;;12.02;9.27;;;18.30;83.80;;;;;;5053190;28;20455;-90
2021/07/22 04:30:42;;;;;;;12.45;9.20;;;18.40;83.80;;;;;;5052830;28;20053;-90
2021/07/22 04:33:08;;;;;;;11.73;8.85;;;18.30;83.60;;;;;;5053132;28;20129;-90
2021/07/22 04:35:33;;;;;;;10.68;9.00;;;18.30;83.50;;;;;;5052614;28;20504;-89
2021/07/22 04:38:00;;;;;;;10.88;8.90;;;18.30;83.50;;;;;;5052835;28;20045;-89
2021/07/22 04:40:26;;;;;;;10.95;8.35;;;18.30;83.40;;;;;;5052412;28;20049;-89
2021/07/22 04:42:51;;;;;;;12.13;8.88;;;18.30;83.70;;;;;;5052453;28;20049;-89
2021/07/22 04:45:17;;;;;;;11.20;8.75;;;18.30;83.90;;;;;;5054507;28;20087;-90
2021/07/22 04:47:43;;;;;;;11.05;8.57;;;18.30;83.50;;;;;;5056434;28;20457;-89
2021/07/22 04:50:09;;;;;;;10.35;8.32;;;18.30;83.60;;;;;;5056152;28;20057;-90
2021/07/22 04:52:35;;;;;;;11.43;8.73;;;18.30;83.20;;;;;;5057018;28;20049;-90
2021/07/22 04:55:01;;;;;;;11.68;8.50;;;18.30;83.40;;;;;;5056156;28;20051;-89
2021/07/22 04:57:26;;;;;;;10.45;8.15;;;18.40;83.50;;;;;;5056080;28;20048;-89
2021/07/22 04:59:52;;;;;;;10.57;7.80;;;18.30;83.40;;;;;;5056130;28;20087;-89
2021/07/22 05:02:19;;;;;;;10.45;8.55;;;18.30;83.30;;;;;;5056380;28;20520;-89
2021/07/22 05:04:45;;;;;;;10.93;8.32;;;18.30;83.50;;;;;;5055986;28;20048;-89
2021/07/22 05:07:14;;;;;;;11.13;8.25;;;18.30;83.40;;;;;;5056449;28;20052;-89
2021/07/22 05:09:39;;;;;;;10.23;7.53;;;18.30;83.20;;;;;;5055211;28;20049;-88
2021/07/22 05:12:09;;;;;;;10.88;8.07;;;18.30;82.80;;;;;;5054913;28;20045;-89
2021/07/22 05:14:35;;;;;;;11.55;7.38;;;18.30;83.20;;;;;;5056143;28;20049;-89
2021/07/22 05:17:01;;;;;;;10.25;7.28;;;18.30;83.30;;;;;;5055299;28;20056;-88
2021/07/22 05:19:26;;;;;;;10.68;7.20;;;18.30;83.30;;;;;;5054756;28;20040;-88
2021/07/22 05:21:52;;;;;;;10.98;7.18;;;18.30;82.80;;;;;;5072159;28;20576;-88
2021/07/22 05:24:18;;;;;;;9.55;7.00;;;18.30;82.90;;;;;;5076074;28;20060;-87
2021/07/22 05:26:43;;;;;;;12.30;6.40;;;18.30;83.00;;;;;;5075778;28;20455;-88
2021/07/22 05:29:09;;;;;;;9.70;6.88;;;18.30;82.80;;;;;;5075332;28;20048;-88
2021/07/22 05:31:44;;;;;;;10.48;7.43;;;18.30;83.80;;;;;;5066549;28;20053;-88
2021/07/22 05:34:10;;;;;;;8.95;6.85;;;18.30;83.60;;;;;;5072964;28;20599;-89
2021/07/22 05:36:36;;;;;;;9.18;6.65;;;18.30;83.50;;;;;;5075953;28;20068;-88
2021/07/22 05:39:03;;;;;;;9.35;6.55;;;18.30;83.20;;;;;;5091290;28;20044;-81
2021/07/22 05:41:29;;;;;;;9.98;6.43;;;18.30;83.10;;;;;;5081891;28;20056;-82
2021/07/22 05:43:55;;;;;;;10.00;6.30;;;18.30;82.70;;;;;;5089857;28;20495;-82
2021/07/22 05:46:21;;;;;;;9.45;6.75;;;18.40;83.00;;;;;;5080713;28;20075;-91
2021/07/22 05:48:47;;;;;;;9.27;6.03;;;18.40;83.30;;;;;;5092106;28;20116;-92
2021/07/22 05:51:14;;;;;;;9.38;6.50;;;18.40;83.60;;;;;;5079578;28;20043;-90
2021/07/22 05:53:40;;;;;;;7.72;5.93;;;18.40;83.50;;;;;;5086641;28;20047;-87
2021/07/22 05:56:05;;;;;;;9.13;6.32;;;18.40;83.50;;;;;;5084736;28;20044;-90
2021/07/22 05:58:31;;;;;;;8.25;5.85;;;18.40;83.50;;;;;;5076728;28;20460;-88
2021/07/22 06:00:57;;;;;;;9.38;6.22;;;18.40;83.30;;;;;;5070434;28;20405;-88
2021/07/22 06:03:23;;;;;;;8.77;6.18;;;18.40;83.30;;;;;;5072577;28;20051;-89
2021/07/22 06:05:49;;;;;;;9.25;5.78;;;18.50;83.50;;;;;;5084620;28;20047;-89
2021/07/22 06:08:15;;;;;;;8.05;6.13;;;18.50;83.30;;;;;;5081454;28;20083;-90
2021/07/22 06:10:41;;;;;;;9.95;6.35;;;18.50;82.90;;;;;;5092061;28;20054;-89
2021/07/22 06:13:07;;;;;;;11.07;5.97;;;18.50;82.60;;;;;;5076382;28;20051;-90
2021/07/22 06:15:32;;;;;;;8.43;5.22;;;18.50;82.10;;;;;;5081597;28;20085;-90
2021/07/22 06:17:58;;;;;;;7.40;5.57;;;18.50;81.70;;;;;;5083851;28;20504;-90
2021/07/22 06:20:24;;;;;;;8.77;5.57;;;18.50;82.10;;;;;;5088772;28;20056;-90
2021/07/22 06:22:49;;;;;;;8.38;5.20;;;18.50;82.40;;;;;;5076402;28;20040;-89
2021/07/22 06:25:15;;;;;;;10.77;5.10;;;18.50;82.40;;;;;;5079389;28;20083;-90
2021/07/22 06:27:42;;;;;;;8.70;5.50;;;18.50;81.90;;;;;;5086594;28;20049;-90
2021/07/22 06:30:09;;;;;;;7.72;5.00;;;18.60;82.20;;;;;;5079528;28;20562;-91
2021/07/22 06:32:34;;;;;;;7.25;5.03;;;18.50;82.10;;;;;;5090110;28;20048;-89
2021/07/22 06:35:00;;;;;;;6.68;4.72;;;18.60;82.40;;;;;;5074341;28;20045;-88
2021/07/22 06:37:26;;;;;;;6.90;5.05;;;18.60;82.50;;;;;;5080547;28;20135;-89
2021/07/22 06:39:51;;;;;;;8.48;5.22;;;18.60;82.50;;;;;;5084385;28;20500;-88
2021/07/22 06:42:17;;;;;;;7.60;4.68;;;18.60;82.30;;;;;;5077268;28;20557;-87
2021/07/22 06:44:43;;;;;;;9.52;5.10;;;18.60;81.90;;;;;;5088019;28;20052;-87
2021/07/22 06:47:09;;;;;;;7.30;5.07;;;18.70;81.90;;;;;;5081467;28;20044;-88
2021/07/22 06:49:34;;;;;;;7.80;4.93;;;18.70;82.30;;;;;;5086367;28;20102;-88
2021/07/22 06:52:00;;;;;;;7.47;4.47;;;18.80;82.40;;;;;;5077989;28;20102;-88
2021/07/22 06:54:25;;;;;;;7.90;4.82;;;18.80;82.20;;;;;;5088701;28;20052;-88
2021/07/22 06:56:51;;;;;;;8.88;4.60;;;18.80;82.20;;;;;;5075076;28;20510;-88
2021/07/22 06:59:17;;;;;;;8.55;4.47;;;18.80;81.80;;;;;;5078476;28;20100;-84
2021/07/22 07:01:43;;;;;;;7.63;4.10;;;18.80;81.30;;;;;;5084171;28;20053;-86
2021/07/22 07:04:08;;;;;;;8.85;4.30;;;18.90;81.20;;;;;;5070980;28;20126;-88
2021/07/22 07:06:35;;;;;;;7.40;4.22;;;18.90;80.90;;;;;;5073936;28;20036;-85
2021/07/22 07:09:04;;;;;;;9.90;3.83;;;19.00;81.30;;;;;;5080469;28;20063;-87
2021/07/22 07:11:30;;;;;;;7.60;4.40;;;19.00;79.40;;;;;;5086070;28;20460;-88
2021/07/22 07:13:56;;;;;;;8.25;4.15;;;18.90;79.50;;;;;;5075948;28;20044;-88
2021/07/22 07:16:22;;;;;;;6.82;4.13;;;19.00;80.50;;;;;;5076993;28;20389;-86
2021/07/22 07:18:47;;;;;;;6.65;4.53;;;19.00;80.80;;;;;;5078872;28;20052;-87
2021/07/22 07:21:14;;;;;;;6.75;4.05;;;19.10;80.70;;;;;;5089194;28;20507;-88
2021/07/22 07:23:40;;;;;;;6.32;4.05;;;19.10;79.90;;;;;;5073510;28;20159;-89
2021/07/22 07:26:09;;;;;;;7.68;3.92;;;19.10;79.70;;;;;;5077510;28;20056;-87
2021/07/22 07:28:35;;;;;;;6.93;3.90;;;19.10;78.50;;;;;;5074115;28;20044;-88
2021/07/22 07:31:01;;;;;;;8.25;4.38;;;19.20;79.00;;;;;;5075713;28;20048;-87
2021/07/22 07:33:29;;;;;;;8.80;4.30;;;19.20;78.70;;;;;;5075236;28;20139;-88
2021/07/22 07:35:56;;;;;;;8.13;4.20;;;19.20;77.90;;;;;;5072879;28;20507;-88
2021/07/22 07:38:22;;;;;;;6.13;4.18;;;19.20;78.50;;;;;;5082828;28;20053;-88
2021/07/22 07:40:47;;;;;;;6.47;4.13;;;19.20;78.80;;;;;;5088242;28;20052;-87
2021/07/22 07:43:18;;;;;;;6.97;4.18;;;19.30;79.00;;;;;;5073508;28;20056;-91
2021/07/22 07:45:44;;;;;;;8.20;3.90;;;19.30;78.50;;;;;;5081232;28;20480;-88
2021/07/22 07:48:09;;;;;;;7.32;4.00;;;19.40;78.40;;;;;;5080459;28;20048;-90
2021/07/22 07:50:36;;;;;;;7.32;3.90;;;19.40;78.70;;;;;;5074212;28;20056;-90
2021/07/22 07:53:12;;;;;;;9.32;3.85;;;19.40;78.40;;;;;;5075432;28;20471;-90
2021/07/22 07:55:38;;;;;;;7.25;4.00;;;19.50;78.40;;;;;;5074494;28;20068;-90
2021/07/22 07:58:04;;;;;;;7.22;3.97;;;19.50;78.50;;;;;;5084723;28;20044;-90
2021/07/22 08:00:29;;;;;;;6.13;3.95;;;19.60;79.10;;;;;;5076731;28;20063;-90
2021/07/22 08:02:58;;;;;;;7.20;4.28;;;19.60;79.20;;;;;;5079919;28;20055;-90
2021/07/22 08:05:27;;;;;;;7.80;4.10;;;19.70;78.10;;;;;;5066644;28;20041;-91
2021/07/22 08:07:53;;;;;;;7.30;4.10;;;19.70;76.40;;;;;;5069096;28;20044;-91
2021/07/22 08:10:19;;;;;;;6.82;4.00;;;19.80;75.90;;;;;;5069874;28;20515;-90
2021/07/22 08:12:44;;;;;;;6.03;3.88;;;19.80;76.50;;;;;;5089692;28;20036;-90
2021/07/22 08:15:11;;;;;;;6.72;3.67;;;19.80;77.60;;;;;;5069067;28;20143;-90
2021/07/22 08:17:37;;;;;;;7.80;3.75;;;19.80;77.50;;;;;;5071690;28;20037;-88
2021/07/22 08:20:07;;;;;;;6.68;3.95;;;19.80;77.00;;;;;;5084958;28;20515;-90
2021/07/22 08:22:35;;;;;;;8.25;4.45;;;19.90;76.40;;;;;;5077967;28;20488;-90
2021/07/22 08:25:02;;;;;;;6.65;4.10;;;19.90;77.00;;;;;;5081355;28;20052;-90
2021/07/22 08:27:32;;;;;;;5.80;3.65;;;20.00;76.40;;;;;;5090574;28;20041;-88
2021/07/22 08:29:59;;;;;;;7.70;4.30;;;20.00;75.30;;;;;;5087281;28;20056;-90
2021/07/22 08:32:25;;;;;;;5.78;3.92;;;20.10;73.90;;;;;;5081338;28;20484;-90
2021/07/22 08:34:52;;;;;;;6.70;3.85;;;20.10;72.40;;;;;;5092950;28;20423;-89
2021/07/22 08:37:18;;;;;;;5.97;4.00;;;20.10;73.10;;;;;;5082050;28;20123;-90
2021/07/22 08:39:50;;;;;;;6.32;3.90;;;20.10;74.20;;;;;;5085471;28;20136;-89
2021/07/22 08:42:16;;;;;;;7.47;3.60;;;20.20;73.90;;;;;;5066332;28;20041;-89
2021/07/22 08:44:43;;;;;;;5.85;3.92;;;20.30;71.40;;;;;;5079221;28;20052;-88
2021/07/22 08:47:10;;;;;;;5.50;3.72;;;20.40;72.80;;;;;;5092647;28;20067;-89
2021/07/22 08:49:39;;;;;;;5.88;3.72;;;20.40;73.00;;;;;;5083850;28;20048;-90
2021/07/22 08:52:08;;;;;;;6.32;3.60;;;20.50;73.60;;;;;;5084345;28;20821;-89
2021/07/22 08:54:34;;;;;;;6.35;3.70;;;20.60;72.20;;;;;;5092185;28;20094;-89
2021/07/22 08:57:01;;;;;;;6.25;3.97;;;20.70;72.70;;;;;;5076454;28;20122;-89
2021/07/22 08:59:31;;;;;;;6.28;3.88;;;20.80;72.90;;;;;;5082835;28;20135;-89
2021/07/22 09:01:58;;;;;;;6.35;3.03;;;20.90;71.90;;;;;;5096611;28;20424;-89
2021/07/22 09:04:23;;;;;;;7.40;3.38;;;20.90;70.50;;;;;;5083953;28;20059;-91
2021/07/22 09:06:49;;;;;;;5.72;3.03;;;20.90;70.80;;;;;;5069321;28;20068;-87
2021/07/22 09:09:16;;;;;;;6.30;3.53;;;20.90;70.90;;;;;;5082862;28;20127;-89
2021/07/22 09:11:57;;;;;;;7.13;3.50;;;20.90;72.10;;;;;;5090320;28;20104;-89
2021/07/22 09:14:25;;;;;;;5.28;3.47;;;20.80;72.70;;;;;;5092636;28;20059;-89
2021/07/22 09:16:51;;;;;;;5.45;3.15;;;20.90;72.20;;;;;;5074616;28;20119;-89
2021/07/22 09:19:40;;;;;;;8.57;3.58;;;20.90;72.20;;;;;;5088556;28;20536;-89
2021/07/22 09:22:11;;;;;;;5.85;3.38;;;20.90;73.60;;;;;;5083673;28;20055;-89
2021/07/22 09:24:51;;;;;;;7.05;3.75;;;21.00;74.90;;;;;;5086071;28;20041;-89
2021/07/22 09:27:32;;;;;;;5.30;3.10;;;21.10;74.20;;;;;;5062003;28;20158;-88
2021/07/22 09:29:59;;;;;;;5.72;2.92;;;21.20;75.20;;;;;;5072507;28;20048;-87
2021/07/22 09:32:31;;;;;;;4.72;3.17;;;21.20;73.30;;;;;;5071894;28;20765;-88
2021/07/22 09:35:17;;;;;;;6.13;3.13;;;21.30;74.50;;;;;;5074596;28;20420;-88
2021/07/22 09:37:47;;;;;;;6.00;3.15;;;21.40;72.30;;;;;;5068681;28;20049;-89
2021/07/22 09:40:18;;;;;;;5.68;3.20;;;21.40;73.30;;;;;;5072413;28;20051;-90
2021/07/22 09:42:49;;;;;;;5.95;2.85;;;21.50;73.90;;;;;;5092584;28;20048;-90
2021/07/22 09:45:20;;;;;;;6.60;3.00;;;21.60;71.90;;;;;;5078532;28;20558;-91
2021/07/22 09:47:48;;;;;;;5.03;2.90;;;21.60;69.10;;;;;;5082236;28;20052;-89
2021/07/22 09:50:17;;;;;;;6.50;3.50;;;21.60;70.10;;;;;;5076067;28;20052;-89
2021/07/22 09:52:44;;;;;;;4.75;2.92;;;21.60;72.00;;;;;;5067866;28;20076;-90
2021/07/22 09:55:30;;;;;;;6.45;3.20;;;21.60;73.00;;;;;;5068838;28;20113;-89
2021/07/22 09:57:58;;;;;;;5.88;3.15;;;21.70;72.90;;;;;;5087142;28;20071;-92
2021/07/22 10:00:25;;;;;;;5.55;3.05;;;21.80;74.30;;;;;;5091947;28;20059;-91
2021/07/22 10:02:53;;;;;;;5.97;3.10;;;21.90;74.30;;;;;;5073579;28;20078;-91
2021/07/22 10:05:24;;;;;;;5.05;2.90;;;22.00;72.60;;;;;;5070416;28;20079;-91
2021/07/22 10:07:54;;;;;;;5.15;2.63;;;22.00;73.50;;;;;;5081508;28;20048;-90
2021/07/22 10:10:21;;;;;;;7.88;3.30;;;22.10;74.80;;;;;;5080401;28;20052;-89
2021/07/22 10:12:57;;;;;;;4.65;2.80;;;22.20;69.90;;;;;;5090708;28;20070;-87
2021/07/22 10:15:35;;;;;;;5.50;3.33;;;22.30;71.30;;;;;;5083026;28;20044;-86
2021/07/22 10:18:06;;;;;;;5.22;3.00;;;22.40;72.10;;;;;;5088758;28;20052;-86
2021/07/22 10:20:33;;;;;;;5.85;2.58;;;22.50;70.10;;;;;;5077008;28;20500;-87
2021/07/22 10:23:00;;;;;;;7.25;2.72;;;22.60;67.80;;;;;;5081429;28;20496;-90
2021/07/22 10:25:26;;;;;;;5.63;2.80;;;22.60;67.60;;;;;;5072589;28;20039;-84
2021/07/22 10:27:57;;;;;;;6.20;2.88;;;22.70;70.00;;;;;;5086072;28;20086;-91
2021/07/22 10:30:25;;;;;;;5.97;2.65;;;22.70;71.10;;;;;;5077622;28;20048;-91
2021/07/22 10:32:56;;;;;;;6.40;2.60;;;22.90;69.00;;;;;;5090525;28;20089;-90
2021/07/22 10:35:27;;;;;;;6.45;2.72;;;22.90;67.00;;;;;;5073143;28;20113;-89
2021/07/22 10:38:13;;;;;;;6.30;2.85;;;22.90;66.00;;;;;;5069727;28;20044;-89
2021/07/22 10:40:46;;;;;;;6.05;2.90;;;22.90;68.60;;;;;;5068186;28;20188;-89
2021/07/22 10:43:30;;;;;;;;;;;22.90;70.50;;;;;;5071621;28;20044;-88
2021/07/22 10:45:57;;;;;;;6.10;2.67;;;22.80;65.30;;;;;;5071076;28;19921;-90
2021/07/22 10:48:26;;;;;;;5.40;2.60;;;22.90;68.30;;;;;;5072439;28;20040;-90
2021/07/22 10:50:55;;;;;;;5.63;2.83;;;23.00;69.80;;;;;;5075393;28;20147;-90
2021/07/22 10:53:40;;;;;;;5.90;2.90;;;23.10;71.00;;;;;;5073439;28;20044;-91
2021/07/22 10:56:11;;;;;;;5.32;2.67;;;23.20;71.60;;;;;;5074988;28;20080;-89
2021/07/22 10:58:37;;;;;;;5.60;2.38;;;23.40;72.20;;;;;;5093534;28;20511;-87
2021/07/22 11:01:07;;;;;;;6.15;2.40;;;23.50;71.80;;;;;;5071709;28;20052;-88
2021/07/22 11:03:33;;;;;;;5.93;2.50;;;23.50;67.10;;;;;;5086117;28;20096;-88
2021/07/22 11:06:00;;;;;;;5.50;2.58;;;23.60;65.10;;;;;;5072743;28;20496;-89
2021/07/22 11:08:26;;;;;;;7.10;2.33;;;23.60;69.00;;;;;;5072856;28;20079;-89
2021/07/22 11:10:55;;;;;;;7.97;2.25;;;23.70;66.60;;;;;;5090481;28;20416;-89
2021/07/22 11:13:40;;;;;;;7.43;2.90;;;23.70;64.60;;;;;;5088003;28;20072;-90
2021/07/22 11:16:21;;;;;;;5.68;2.63;;;23.70;65.70;;;;;;5074189;28;20052;-91
2021/07/22 11:18:48;;;;;;;4.78;2.33;;;23.70;68.10;;;;;;5070466;28;20451;-92
2021/07/22 11:21:32;;;;;;;6.05;2.60;;;23.70;67.40;;;;;;5050749;28;1034368;-90
2021/07/22 11:24:07;;;;;;;5.45;2.60;;;23.70;66.90;;;;;;5052635;28;20147;-90
2021/07/22 11:26:35;;;;;;;8.40;2.70;;;23.80;64.90;;;;;;5089605;28;20048;-87
2021/07/22 11:29:02;;;;;;;6.35;2.50;;;23.70;63.00;;;;;;5074282;28;20062;-89
2021/07/22 11:31:32;;;;;;;4.40;2.38;;;23.70;64.70;;;;;;5072561;28;20090;-89
2021/07/22 11:34:02;;;;;;;6.22;2.40;;;23.70;66.10;;;;;;5073939;28;20055;-91
2021/07/22 11:36:30;;;;;;;4.97;2.50;;;23.70;64.10;;;;;;5081381;28;20048;-92
2021/07/22 11:38:57;;;;;;;4.85;2.40;;;23.70;64.40;;;;;;5077246;28;20403;-91
2021/07/22 11:41:22;;;;;;;5.45;2.38;;;23.80;66.60;;;;;;5078347;28;20055;-89
2021/07/22 11:43:56;;;;;;;4.25;2.45;;;23.80;68.80;;;;;;5070410;28;20044;-90
2021/07/22 11:46:44;;;;;;;4.40;2.30;;;24.00;69.50;;;;;;5072340;28;20103;-91
2021/07/22 11:49:17;;;;;;;3.85;2.15;;;24.20;68.30;;;;;;5071963;28;20052;-89
2021/07/22 11:51:47;;;;;;;5.65;2.50;;;24.30;69.50;;;;;;5077423;28;20181;-89
2021/07/22 11:54:16;;;;;;;5.75;2.33;;;24.30;69.60;;;;;;5076445;28;20068;-91
2021/07/22 11:56:42;;;;;;;4.32;2.35;;;24.40;69.90;;;;;;5076578;28;20051;-90
2021/07/22 11:59:10;;;;;;;4.47;2.30;;;24.50;69.80;;;;;;5075293;28;20076;-91
2021/07/22 12:01:51;;;;;;;5.32;2.30;;;24.60;67.80;;;;;;5073733;28;20457;-90
2021/07/22 12:04:31;;;;;;;4.10;2.13;;;24.60;63.50;;;;;;5085177;28;20515;-90
2021/07/22 12:06:59;;;;;;;5.63;2.13;;;24.60;66.60;;;;;;5075550;28;20110;-90
2021/07/22 12:09:25;;;;;;;4.93;2.22;;;24.70;61.80;;;;;;5094176;28;20052;-90
2021/07/22 12:11:56;;;;;;;4.20;2.10;;;24.70;63.90;;;;;;5093736;28;20534;-91
2021/07/22 12:14:30;;;;;;;4.53;2.20;;;24.60;64.30;;;;;;5078454;28;20446;-91
2021/07/22 12:17:09;;;;;;;6.80;2.58;;;24.60;65.20;;;;;;5089850;28;20056;-90
2021/07/22 12:19:38;;;;;;;4.90;2.40;;;24.70;62.00;;;;;;5080648;28;20052;-90
2021/07/22 12:22:20;;;;;;;5.32;2.30;;;24.70;64.30;;;;;;5087939;28;20087;-89
2021/07/22 12:24:51;;;;;;;4.30;2.08;;;24.70;62.80;;;;;;5073657;28;20075;-89
2021/07/22 12:27:39;;;;;;;6.30;2.58;;;24.70;63.80;;;;;;5084990;28;20082;-90
2021/07/22 12:30:21;;;;;;;5.97;2.28;;;24.80;66.10;;;;;;5081486;28;20048;-89
2021/07/22 12:33:01;;;;;;;5.43;2.30;;;24.90;67.30;;;;;;5089714;28;20055;-90
2021/07/22 12:35:38;;;;;;;4.38;2.22;;;25.00;66.40;;;;;;5078799;28;20048;-88
2021/07/22 12:38:19;;;;;;;5.82;2.20;;;25.10;67.60;;;;;;5081144;28;20476;-89
2021/07/22 12:40:56;;;;;;;6.50;2.25;;;25.30;67.30;;;;;;5073229;28;20140;-88
2021/07/22 12:43:24;;;;;;;4.32;2.08;;;25.30;63.10;;;;;;5086605;28;20051;-91
2021/07/22 12:45:53;;;;;;;5.20;2.00;;;25.40;66.00;;;;;;5081235;28;20492;-90